createdAt,value
2019-05-15T00:01:40.690Z,99014.00
2019-05-15T00:06:44.792Z,99016.00
2019-05-15T00:12:11.755Z,99000.00
2019-05-15T00:17:39.490Z,99002.00
2019-05-15T00:23:04.334Z,99002.00
2019-05-15T00:28:29.591Z,98985.00
2019-05-15T00:33:55.069Z,98973.00
2019-05-15T00:39:20.503Z,98979.00
2019-05-15T00:44:45.896Z,98963.00
2019-05-15T00:50:12.210Z,98970.00
2019-05-15T00:55:19.670Z,98960.00
2019-05-15T01:00:48.754Z,98965.00
2019-05-15T01:05:55.864Z,98949.00
2019-05-15T01:11:09.054Z,98943.00
2019-05-15T01:16:34.192Z,98937.00
2019-05-15T01:22:00.766Z,98941.00
2019-05-15T01:27:09.169Z,98934.00
2019-05-15T01:32:19.233Z,98929.00
2019-05-15T01:37:44.346Z,98929.00
2019-05-15T01:43:10.515Z,98915.00
2019-05-15T01:48:49.419Z,98927.00
2019-05-15T01:54:18.488Z,98919.00
2019-05-15T01:59:56.373Z,98923.00
2019-05-15T02:05:32.421Z,98913.00
2019-05-15T02:10:41.054Z,98907.00
2019-05-15T02:16:08.346Z,98893.00
2019-05-15T02:21:33.515Z,98895.00
2019-05-15T02:26:58.961Z,98883.00
2019-05-15T02:32:25.563Z,98891.00
2019-05-15T02:37:53.247Z,98886.00
2019-05-15T02:43:19.191Z,98885.00
2019-05-15T02:48:29.000Z,98876.00
2019-05-15T02:53:35.555Z,98876.00
2019-05-15T02:59:01.682Z,98884.00
2019-05-15T03:04:09.769Z,98889.00
2019-05-15T03:14:22.211Z,98877.00
2019-05-15T03:19:49.838Z,98885.00
2019-05-15T03:24:59.241Z,98879.00
2019-05-15T03:30:12.745Z,98895.00
2019-05-15T03:35:22.054Z,98888.00
2019-05-15T03:40:43.916Z,98882.00
2019-05-15T03:45:51.416Z,98873.00
2019-05-15T03:51:19.964Z,98884.00
2019-05-15T03:56:29.591Z,98884.00
2019-05-15T04:01:39.758Z,98893.00
2019-05-15T04:07:03.326Z,98893.00
2019-05-15T04:12:21.405Z,98895.00
2019-05-15T04:17:49.390Z,98910.00
2019-05-15T04:22:59.979Z,98898.00
2019-05-15T04:28:29.224Z,98898.00
2019-05-15T04:33:54.096Z,98901.00
2019-05-15T04:39:09.984Z,98906.00
2019-05-15T04:44:21.392Z,98906.00
2019-05-15T04:49:31.042Z,98901.00
2019-05-15T04:54:40.187Z,98910.00
2019-05-15T05:00:20.098Z,98908.00
2019-05-15T05:05:29.380Z,98911.00
2019-05-15T05:10:39.598Z,98906.00
2019-05-15T05:15:50.644Z,98906.00
2019-05-15T05:20:57.919Z,98904.00
2019-05-15T05:26:08.805Z,98903.00
2019-05-15T05:31:14.731Z,98904.00
2019-05-15T05:36:22.582Z,98898.00
2019-05-15T05:41:31.000Z,98892.00
2019-05-15T05:46:40.012Z,98897.00
2019-05-15T05:51:48.077Z,98892.00
2019-05-15T05:56:55.581Z,98904.00
2019-05-15T06:02:03.768Z,98897.00
2019-05-15T06:07:14.334Z,98904.00
2019-05-15T06:12:20.930Z,98908.00
2019-05-15T06:17:28.732Z,98905.00
2019-05-15T06:22:38.408Z,98900.00
2019-05-15T06:27:48.216Z,98903.00
2019-05-15T06:33:14.109Z,98921.00
2019-05-15T06:38:22.654Z,98906.00
2019-05-15T06:43:48.549Z,98912.00
2019-05-15T06:49:05.906Z,98911.00
2019-05-15T06:54:15.404Z,98908.00
2019-05-15T06:59:25.438Z,98900.00
2019-05-15T07:04:34.906Z,98899.00
2019-05-15T07:09:59.736Z,98903.00
2019-05-15T07:15:29.346Z,98901.00
2019-05-15T07:20:44.428Z,98908.00
2019-05-15T07:26:09.203Z,98902.00
2019-05-15T07:31:18.017Z,98904.00
2019-05-15T07:36:28.840Z,98911.00
2019-05-15T07:41:38.968Z,98901.00
2019-05-15T07:46:48.854Z,98901.00
2019-05-15T07:51:55.980Z,98901.00
2019-05-15T07:57:19.072Z,98902.00
2019-05-15T08:02:28.335Z,98902.00
2019-05-15T08:07:35.424Z,98883.00
2019-05-15T08:12:42.387Z,98895.00
2019-05-15T08:18:03.942Z,98905.00
2019-05-15T08:23:13.908Z,98908.00
2019-05-15T08:28:20.913Z,98902.00
2019-05-15T08:33:28.170Z,98897.00
2019-05-15T08:38:35.157Z,98889.00
2019-05-15T08:44:00.041Z,98876.00
2019-05-15T08:49:09.087Z,98885.00
2019-05-15T08:54:18.885Z,98882.00
2019-05-15T08:59:25.840Z,98872.00
2019-05-15T09:04:51.280Z,98872.00
2019-05-15T09:09:58.182Z,98871.00
2019-05-15T09:15:10.698Z,98873.00
2019-05-15T09:20:19.627Z,98880.00
2019-05-15T09:25:28.754Z,98876.00
2019-05-15T09:30:38.910Z,98878.00
2019-05-15T09:35:49.064Z,98873.00
2019-05-15T09:40:58.311Z,98875.00
2019-05-15T09:46:07.494Z,98880.00
2019-05-15T09:51:14.907Z,98874.00
2019-05-15T09:56:22.855Z,98875.00
2019-05-15T10:01:39.451Z,98877.00
2019-05-15T10:06:48.830Z,98877.00
2019-05-15T10:11:55.781Z,98874.00
2019-05-15T10:17:03.533Z,98867.00
2019-05-15T10:22:10.451Z,98869.00
2019-05-15T10:27:18.010Z,98861.00
2019-05-15T10:32:28.990Z,98850.00
2019-05-15T10:37:38.997Z,98852.00
2019-05-15T10:42:49.537Z,98846.00
2019-05-15T10:48:05.931Z,98836.00
2019-05-15T10:53:18.874Z,98841.00
2019-05-15T10:58:28.453Z,98834.00
2019-05-15T11:03:35.348Z,98843.00
2019-05-15T11:08:43.233Z,98837.00
2019-05-15T11:13:52.012Z,98836.00
2019-05-15T11:18:58.760Z,98841.00
2019-05-15T11:24:24.178Z,98829.00
2019-05-15T11:29:32.061Z,98834.00
2019-05-15T11:34:39.383Z,98837.00
2019-05-15T11:40:10.026Z,98839.00
2019-05-15T11:45:18.645Z,98824.00
2019-05-15T11:50:29.343Z,98823.00
2019-05-15T11:55:38.725Z,98821.00
2019-05-15T12:00:49.087Z,98819.00
2019-05-15T12:05:55.469Z,98821.00
2019-05-15T12:11:04.453Z,98821.00
2019-05-15T12:16:12.437Z,98805.00
2019-05-15T12:21:20.036Z,98811.00
2019-05-15T12:26:29.181Z,98803.00
2019-05-15T12:31:38.960Z,98805.00
2019-05-15T12:36:56.813Z,98812.00
2019-05-15T13:02:38.691Z,98787.00
2019-05-15T13:07:48.332Z,98786.00
2019-05-15T13:13:01.348Z,98781.00
2019-05-15T13:18:05.319Z,98768.00
2019-05-15T13:23:12.274Z,98792.00
2019-05-15T13:28:19.243Z,98773.00
2019-05-15T13:33:26.611Z,98778.00
2019-05-15T13:38:33.677Z,98767.00
2019-05-15T13:43:42.042Z,98767.00
2019-05-15T13:49:08.449Z,98756.00
2019-05-15T13:54:15.303Z,98758.00
2019-05-15T13:59:24.581Z,98747.00
2019-05-15T14:04:32.496Z,98736.00
2019-05-15T14:09:44.487Z,98738.00
2019-05-15T14:15:10.196Z,98733.00
2019-05-15T14:20:20.788Z,98733.00
2019-05-15T14:25:28.457Z,98732.00
2019-05-15T14:30:36.150Z,98734.00
2019-05-15T14:35:43.757Z,98737.00
2019-05-15T14:40:50.716Z,98737.00
2019-05-15T14:45:59.785Z,98711.00
2019-05-15T14:51:08.745Z,98719.00
2019-05-15T14:56:18.511Z,98715.00
2019-05-15T15:01:25.174Z,98709.00
2019-05-15T15:06:33.167Z,98708.00
2019-05-15T15:11:42.649Z,98713.00
2019-05-15T15:16:51.489Z,98713.00
2019-05-15T15:21:58.682Z,98713.00
2019-05-15T15:27:08.291Z,98702.00
2019-05-15T15:32:25.638Z,98703.00
2019-05-15T15:37:32.785Z,98695.00
2019-05-15T15:42:40.459Z,98706.00
2019-05-15T15:47:48.325Z,98711.00
2019-05-15T15:52:55.633Z,98703.00
2019-05-15T15:58:02.741Z,98703.00
2019-05-15T16:03:09.857Z,98692.00
2019-05-15T16:08:19.044Z,98683.00
2019-05-15T16:13:29.007Z,98674.00
2019-05-15T16:18:35.111Z,98682.00
2019-05-15T16:23:43.377Z,98681.00
2019-05-15T16:28:50.475Z,98679.00
2019-05-15T16:33:58.594Z,98672.00
2019-05-15T16:39:11.367Z,98666.00
2019-05-15T16:44:32.715Z,98661.00
2019-05-15T16:49:40.625Z,98663.00
2019-05-15T16:54:49.164Z,98658.00
2019-05-15T16:59:58.389Z,98654.00
2019-05-15T17:05:07.098Z,98652.00
2019-05-15T17:10:14.816Z,98652.00
2019-05-15T17:15:22.651Z,98648.00
2019-05-15T17:20:30.172Z,98657.00
2019-05-15T17:25:38.385Z,98641.00
2019-05-15T17:30:45.885Z,98643.00
2019-05-15T17:35:52.922Z,98648.00
2019-05-15T17:41:00.216Z,98653.00
2019-05-15T17:46:08.866Z,98630.00
2019-05-15T17:51:17.760Z,98636.00
2019-05-15T17:56:28.173Z,98628.00
2019-05-15T18:01:38.101Z,98619.00
2019-05-15T18:06:44.973Z,98611.00
2019-05-15T18:11:52.153Z,98615.00
2019-05-15T18:17:00.556Z,98607.00
2019-05-15T18:22:08.932Z,98606.00
2019-05-15T18:27:18.522Z,98599.00
2019-05-15T18:32:29.343Z,98611.00
2019-05-15T18:37:38.945Z,98599.00
2019-05-15T18:42:49.341Z,98594.00
2019-05-15T18:47:55.261Z,98597.00
2019-05-15T18:53:15.440Z,98600.00
2019-05-15T18:58:25.234Z,98595.00
2019-05-15T19:03:34.695Z,98590.00
2019-05-15T19:08:44.457Z,98594.00
2019-05-15T19:13:51.727Z,98596.00
2019-05-15T19:19:00.187Z,98591.00
2019-05-15T19:24:07.816Z,98596.00
2019-05-15T19:29:15.045Z,98595.00
2019-05-15T19:34:28.146Z,98590.00
2019-05-15T19:39:35.368Z,98593.00
2019-05-15T19:44:44.295Z,98589.00
2019-05-15T19:49:52.436Z,98588.00
2019-05-15T19:54:59.493Z,98583.00
2019-05-15T20:00:09.531Z,98578.00
2019-05-15T20:05:19.123Z,98577.00
2019-05-15T20:10:29.381Z,98572.00
2019-05-15T20:15:37.963Z,98570.00
2019-05-15T20:20:47.775Z,98577.00
2019-05-15T20:25:57.697Z,98575.00
2019-05-15T20:31:07.906Z,98570.00
2019-05-15T20:36:14.970Z,98563.00
2019-05-15T20:41:23.178Z,98561.00
2019-05-15T20:46:30.290Z,98554.00
2019-05-15T20:51:38.991Z,98546.00
2019-05-15T20:57:00.317Z,98541.00
2019-05-15T21:02:08.542Z,98546.00
2019-05-15T21:07:43.093Z,98534.00
2019-05-15T21:12:48.965Z,98522.00
2019-05-15T21:17:59.558Z,98513.00
2019-05-15T21:23:05.062Z,98514.00
2019-05-15T21:28:13.271Z,98511.00
2019-05-15T21:33:21.547Z,98498.00
2019-05-15T21:38:28.835Z,98485.00
2019-05-15T21:43:36.812Z,98484.00
2019-05-15T21:48:44.787Z,98483.00
2019-05-15T21:53:52.082Z,98479.00
2019-05-15T21:59:01.146Z,98478.00
2019-05-15T22:04:08.161Z,98477.00
2019-05-15T22:09:18.411Z,98476.00
2019-05-15T22:14:25.891Z,98469.00
2019-05-15T22:19:33.019Z,98463.00
2019-05-15T22:24:40.942Z,98458.00
2019-05-15T22:29:48.200Z,98445.00
2019-05-15T22:35:07.046Z,98440.00
2019-05-15T22:40:08.912Z,98442.00
2019-05-15T22:45:41.559Z,98427.00
2019-05-15T23:08:29.290Z,98404.00
2019-05-15T23:13:38.809Z,98409.00
2019-05-15T23:18:48.478Z,98387.00
2019-05-15T23:23:56.728Z,98388.00
2019-05-15T23:29:07.944Z,98375.00
2019-05-15T23:34:18.839Z,98371.00
2019-05-15T23:39:26.088Z,98366.00
2019-05-15T23:44:34.687Z,98360.00
2019-05-15T23:49:43.698Z,98359.00
2019-05-15T23:55:12.688Z,98364.00
